createdAt,value
2018-02-09T00:00:08.940Z,53.10
2018-02-09T00:02:42.823Z,55.87
2018-02-09T00:05:17.574Z,54.83
2018-02-09T00:07:51.621Z,56.20
2018-02-09T00:10:27.422Z,54.13
2018-02-09T00:13:01.289Z,54.77
2018-02-09T00:15:35.373Z,55.30
2018-02-09T00:18:09.212Z,53.40
2018-02-09T00:20:43.624Z,54.10
2018-02-09T00:23:17.592Z,52.37
2018-02-09T00:25:51.737Z,52.73
2018-02-09T00:28:26.319Z,54.83
2018-02-09T00:30:59.963Z,53.67
2018-02-09T00:33:34.463Z,55.47
2018-02-09T00:36:09.510Z,52.47
2018-02-09T00:38:43.309Z,55.80
2018-02-09T00:41:17.694Z,54.37
2018-02-09T00:43:52.152Z,57.23
2018-02-09T00:46:25.872Z,52.63
2018-02-09T00:49:00.167Z,53.00
2018-02-09T00:51:34.350Z,53.97
2018-02-09T00:54:08.197Z,51.73
2018-02-09T00:56:42.722Z,53.53
2018-02-09T00:59:16.740Z,53.67
2018-02-09T01:01:50.740Z,53.90
2018-02-09T01:04:24.449Z,53.47
2018-02-09T01:06:59.280Z,51.03
2018-02-09T01:09:34.286Z,54.07
2018-02-09T01:12:08.059Z,52.50
2018-02-09T01:14:42.751Z,53.50
2018-02-09T01:17:17.161Z,53.43
2018-02-09T01:19:52.190Z,53.30
2018-02-09T01:22:27.132Z,52.77
2018-02-09T01:25:01.775Z,51.53
2018-02-09T01:27:37.344Z,50.57
2018-02-09T01:30:11.083Z,52.93
2018-02-09T01:32:45.197Z,52.17
2018-02-09T01:35:19.510Z,53.13
2018-02-09T01:37:53.445Z,52.20
2018-02-09T01:40:27.983Z,54.63
2018-02-09T01:43:01.957Z,53.53
2018-02-09T01:45:36.857Z,51.53
2018-02-09T01:48:11.504Z,51.57
2018-02-09T01:50:45.908Z,50.07
2018-02-09T01:53:21.059Z,51.63
2018-02-09T01:55:54.957Z,49.60
2018-02-09T01:58:29.965Z,54.63
2018-02-09T02:01:03.829Z,51.60
2018-02-09T02:03:39.000Z,52.23
2018-02-09T02:06:12.868Z,52.93
2018-02-09T02:08:47.064Z,53.77
2018-02-09T02:11:21.930Z,48.87
2018-02-09T02:13:55.975Z,49.67
2018-02-09T02:16:29.922Z,49.47
2018-02-09T02:19:05.169Z,50.00
2018-02-09T02:21:40.087Z,52.00
2018-02-09T02:24:13.910Z,51.17
2018-02-09T02:26:47.770Z,50.63
2018-02-09T02:29:21.697Z,49.83
2018-02-09T02:31:55.954Z,50.67
2018-02-09T02:34:30.638Z,52.07
2018-02-09T02:37:04.867Z,51.87
2018-02-09T02:39:39.135Z,50.00
2018-02-09T02:42:13.091Z,50.73
2018-02-09T02:44:47.295Z,51.10
2018-02-09T02:47:25.434Z,52.07
2018-02-09T02:49:59.577Z,48.73
2018-02-09T02:52:33.316Z,52.23
2018-02-09T02:55:07.004Z,51.73
2018-02-09T02:57:41.123Z,49.57
2018-02-09T03:00:15.995Z,49.83
2018-02-09T03:02:50.594Z,50.47
2018-02-09T03:05:25.091Z,49.90
2018-02-09T03:08:00.011Z,51.07
2018-02-09T03:10:34.982Z,51.90
2018-02-09T03:13:09.696Z,49.77
2018-02-09T03:15:44.212Z,50.43
2018-02-09T03:18:18.544Z,52.13
2018-02-09T03:20:52.737Z,50.87
2018-02-09T03:23:26.798Z,52.10
2018-02-09T03:26:00.447Z,51.87
2018-02-09T03:28:34.543Z,51.37
2018-02-09T03:31:08.211Z,50.93
2018-02-09T03:33:41.770Z,50.03
2018-02-09T03:36:16.580Z,51.10
2018-02-09T03:38:50.726Z,51.77
2018-02-09T03:41:24.611Z,51.73
2018-02-09T03:43:59.436Z,54.77
2018-02-09T03:46:33.376Z,51.00
2018-02-09T03:49:07.349Z,51.13
2018-02-09T03:51:41.382Z,52.30
2018-02-09T03:54:15.327Z,51.07
2018-02-09T03:56:49.364Z,52.20
2018-02-09T03:59:24.079Z,51.67
2018-02-09T04:01:59.465Z,52.73
2018-02-09T04:04:33.259Z,50.23
2018-02-09T04:07:07.938Z,52.00
2018-02-09T04:09:42.628Z,51.27
2018-02-09T04:12:16.843Z,52.20
2018-02-09T04:14:50.525Z,54.13
2018-02-09T04:17:25.134Z,52.27
2018-02-09T04:19:58.698Z,50.30
2018-02-09T04:22:33.374Z,50.70
2018-02-09T04:25:08.100Z,52.00
2018-02-09T04:27:41.823Z,49.07
2018-02-09T04:30:16.029Z,48.87
2018-02-09T04:32:49.913Z,49.17
2018-02-09T04:35:24.938Z,50.47
2018-02-09T04:37:58.855Z,48.67
2018-02-09T04:40:32.327Z,49.80
2018-02-09T04:43:06.838Z,48.27
2018-02-09T04:45:41.730Z,50.10
2018-02-09T04:48:16.526Z,48.33
2018-02-09T04:50:50.559Z,47.87
2018-02-09T04:53:24.640Z,48.90
2018-02-09T04:55:58.763Z,49.90
2018-02-09T04:58:32.759Z,49.20
2018-02-09T05:01:07.080Z,50.50
2018-02-09T05:03:41.331Z,50.50
2018-02-09T05:06:15.739Z,50.43
2018-02-09T05:08:50.152Z,52.27
2018-02-09T05:11:24.363Z,49.70
2018-02-09T05:13:58.576Z,50.30
2018-02-09T05:16:33.380Z,50.23
2018-02-09T05:19:08.186Z,51.60
2018-02-09T05:21:42.306Z,49.47
2018-02-09T05:24:16.019Z,48.93
2018-02-09T05:26:49.941Z,51.83
2018-02-09T05:29:24.749Z,49.00
2018-02-09T05:31:59.306Z,51.30
2018-02-09T05:34:34.226Z,47.83
2018-02-09T05:37:07.943Z,56.10
2018-02-09T05:39:42.240Z,49.57
2018-02-09T05:42:16.361Z,49.80
2018-02-09T05:44:50.978Z,52.70
2018-02-09T05:47:25.766Z,51.27
2018-02-09T05:49:59.541Z,51.17
2018-02-09T05:52:33.662Z,50.87
2018-02-09T05:55:08.246Z,50.47
2018-02-09T05:57:42.142Z,49.90
2018-02-09T06:00:15.791Z,50.93
2018-02-09T06:02:49.691Z,50.97
2018-02-09T06:05:24.376Z,49.67
2018-02-09T06:07:58.237Z,48.93
2018-02-09T06:10:32.899Z,47.87
2018-02-09T06:13:06.968Z,48.07
2018-02-09T06:15:41.530Z,50.47
2018-02-09T06:18:15.060Z,50.00
2018-02-09T06:20:49.150Z,50.50
2018-02-09T06:23:23.107Z,49.83
2018-02-09T06:25:57.380Z,50.57
2018-02-09T06:28:31.905Z,49.63
2018-02-09T06:31:06.448Z,50.87
2018-02-09T06:33:41.795Z,49.07
2018-02-09T06:36:16.982Z,47.63
2018-02-09T06:38:51.504Z,50.07
2018-02-09T06:41:25.281Z,51.07
2018-02-09T06:43:58.977Z,51.67
2018-02-09T06:46:32.603Z,50.40
2018-02-09T06:49:06.121Z,50.30
2018-02-09T06:51:39.815Z,49.73
2018-02-09T06:54:14.209Z,49.93
2018-02-09T06:56:48.921Z,52.90
2018-02-09T06:59:23.391Z,50.70
2018-02-09T07:01:57.843Z,50.67
2018-02-09T07:04:32.314Z,50.27
2018-02-09T07:07:13.243Z,51.10
2018-02-09T07:09:47.759Z,51.50
2018-02-09T07:12:21.743Z,50.07
2018-02-09T07:14:56.469Z,50.23
2018-02-09T07:17:30.188Z,50.53
2018-02-09T07:20:04.035Z,48.67
2018-02-09T07:22:38.312Z,48.93
2018-02-09T07:25:12.814Z,47.00
2018-02-09T07:27:47.705Z,48.93
2018-02-09T07:30:22.899Z,50.83
2018-02-09T07:32:56.591Z,46.80
2018-02-09T07:35:30.214Z,50.80
2018-02-09T07:51:12.613Z,48.40
2018-02-09T07:53:47.122Z,45.00
2018-02-09T07:56:21.315Z,45.20
2018-02-09T07:58:56.097Z,43.03
2018-02-09T08:01:29.638Z,45.00
2018-02-09T08:04:04.163Z,44.33
2018-02-09T08:06:37.984Z,39.30
2018-02-09T08:09:11.994Z,35.57
2018-02-09T08:11:46.104Z,37.37
2018-02-09T08:14:19.668Z,35.80
2018-02-09T08:16:54.308Z,33.17
2018-02-09T08:19:28.136Z,34.50
2018-02-09T08:22:02.023Z,34.90
2018-02-09T08:24:35.634Z,39.07
2018-02-09T08:27:10.172Z,39.03
2018-02-09T08:29:45.206Z,38.00
2018-02-09T08:32:18.904Z,36.93
2018-02-09T08:34:52.736Z,39.80
2018-02-09T08:37:27.429Z,42.13
2018-02-09T08:40:01.098Z,34.00
2018-02-09T08:42:35.559Z,36.80
2018-02-09T08:45:09.603Z,34.00
2018-02-09T08:47:43.777Z,45.20
2018-02-09T08:50:17.997Z,36.40
2018-02-09T08:52:52.183Z,48.13
2018-02-09T08:55:25.893Z,38.07
2018-02-09T08:57:59.646Z,36.93
2018-02-09T09:00:33.375Z,42.07
2018-02-09T09:03:08.067Z,69.40
2018-02-09T09:05:41.732Z,38.80
2018-02-09T09:08:15.348Z,41.67
2018-02-09T09:10:49.663Z,36.77
2018-02-09T09:13:23.278Z,32.03
2018-02-09T09:15:57.835Z,36.10
2018-02-09T09:18:32.513Z,35.80
2018-02-09T09:21:06.486Z,37.77
2018-02-09T09:23:40.939Z,36.50
2018-02-09T09:26:15.637Z,37.07
2018-02-09T09:28:49.614Z,37.73
2018-02-09T09:31:23.425Z,38.57
2018-02-09T09:33:57.276Z,36.90
2018-02-09T09:36:31.899Z,34.13
2018-02-09T09:39:07.128Z,35.23
2018-02-09T09:41:41.660Z,34.27
2018-02-09T09:44:15.210Z,35.03
2018-02-09T09:46:49.687Z,34.10
2018-02-09T09:49:23.306Z,34.30
2018-02-09T09:51:56.875Z,36.80
2018-02-09T09:54:30.438Z,36.17
2018-02-09T09:57:04.159Z,33.33
2018-02-09T09:59:37.935Z,36.60
2018-02-09T10:02:23.879Z,35.80
2018-02-09T10:04:57.757Z,33.40
2018-02-09T10:07:32.371Z,32.37
2018-02-09T10:10:06.852Z,32.57
2018-02-09T10:12:40.523Z,31.97
2018-02-09T10:15:15.099Z,31.10
2018-02-09T10:17:49.551Z,33.30
2018-02-09T10:20:24.146Z,34.27
2018-02-09T10:22:57.916Z,34.40
2018-02-09T10:25:31.589Z,30.80
2018-02-09T10:28:05.247Z,34.20
2018-02-09T10:30:38.746Z,33.60
2018-02-09T10:33:12.275Z,33.93
2018-02-09T10:35:45.901Z,35.20
2018-02-09T10:38:20.563Z,34.67
2018-02-09T10:40:54.094Z,35.30
2018-02-09T10:43:27.710Z,30.60
2018-02-09T10:46:01.980Z,30.93
2018-02-09T10:48:35.534Z,33.33
2018-02-09T10:51:09.407Z,32.13
2018-02-09T10:53:44.008Z,32.70
2018-02-09T10:56:17.618Z,32.73
2018-02-09T10:58:51.235Z,34.20
2018-02-09T11:01:31.309Z,33.17
2018-02-09T11:04:04.906Z,34.87
2018-02-09T11:06:39.403Z,33.10
2018-02-09T11:09:14.154Z,34.43
2018-02-09T11:11:48.663Z,33.13
2018-02-09T11:14:22.319Z,33.47
2018-02-09T11:16:55.879Z,33.60
2018-02-09T11:19:30.387Z,32.97
2018-02-09T11:22:04.889Z,32.63
2018-02-09T11:24:38.904Z,30.27
2018-02-09T11:40:14.995Z,31.10
2018-02-09T11:42:48.683Z,29.37
2018-02-09T11:45:22.390Z,29.53
2018-02-09T11:47:56.055Z,27.43
2018-02-09T11:50:29.663Z,28.13
2018-02-09T11:53:04.117Z,28.50
2018-02-09T11:55:37.779Z,28.63
2018-02-09T11:58:11.492Z,28.37
2018-02-09T12:00:46.869Z,27.63
2018-02-09T12:03:21.879Z,26.87
2018-02-09T12:05:56.494Z,26.53
2018-02-09T12:08:30.355Z,27.97
2018-02-09T12:11:04.857Z,27.47
2018-02-09T12:13:38.652Z,25.43
2018-02-09T12:16:12.740Z,26.37
2018-02-09T12:18:46.371Z,25.87
2018-02-09T12:21:20.831Z,27.33
2018-02-09T12:23:54.473Z,26.43
2018-02-09T12:39:31.684Z,28.77
2018-02-09T12:42:06.359Z,27.27
2018-02-09T12:44:43.922Z,27.03
2018-02-09T12:47:17.619Z,27.43
2018-02-09T12:49:52.149Z,26.73
2018-02-09T12:52:25.895Z,26.60
2018-02-09T12:54:59.840Z,28.33
2018-02-09T12:57:34.615Z,25.93
2018-02-09T13:00:09.199Z,26.97
2018-02-09T13:02:43.015Z,25.90
2018-02-09T13:05:16.810Z,26.33
2018-02-09T13:07:51.080Z,25.57
2018-02-09T13:10:24.795Z,25.73
2018-02-09T13:13:10.438Z,26.93
2018-02-09T13:15:45.249Z,26.53
2018-02-09T13:18:31.923Z,26.93
2018-02-09T13:21:06.196Z,26.90
2018-02-09T13:23:52.415Z,27.33
2018-02-09T13:26:27.120Z,25.40
2018-02-09T13:29:00.849Z,26.97
2018-02-09T13:31:35.518Z,27.27
2018-02-09T13:34:10.083Z,27.03
2018-02-09T13:50:26.892Z,26.07
2018-02-09T13:53:01.861Z,27.33
2018-02-09T13:55:35.815Z,27.83
2018-02-09T13:58:11.212Z,27.60
2018-02-09T14:00:45.504Z,28.20
2018-02-09T14:03:19.095Z,28.57
2018-02-09T14:05:52.730Z,27.43
2018-02-09T14:08:26.379Z,27.63
2018-02-09T14:11:00.804Z,29.47
2018-02-09T14:13:34.602Z,28.23
2018-02-09T14:16:08.295Z,29.07
2018-02-09T14:18:42.704Z,28.03
2018-02-09T14:21:17.149Z,28.20
2018-02-09T14:23:51.580Z,28.47
2018-02-09T14:26:29.875Z,29.33
2018-02-09T14:29:03.659Z,26.37
2018-02-09T14:31:37.166Z,27.60
2018-02-09T14:34:10.766Z,27.90
2018-02-09T14:36:44.418Z,27.53
2018-02-09T14:39:18.034Z,27.10
2018-02-09T14:41:51.631Z,27.43
2018-02-09T14:44:25.928Z,29.20
2018-02-09T14:46:59.426Z,28.10
2018-02-09T14:49:32.956Z,29.43
2018-02-09T14:52:06.543Z,29.37
2018-02-09T14:54:41.351Z,28.30
2018-02-09T14:57:15.502Z,27.63
2018-02-09T14:59:49.356Z,26.97
2018-02-09T15:02:22.874Z,28.47
2018-02-09T15:04:57.428Z,29.30
2018-02-09T15:20:30.195Z,31.40
2018-02-09T15:23:04.747Z,29.83
2018-02-09T15:25:38.379Z,30.13
2018-02-09T15:28:13.696Z,29.57
2018-02-09T15:30:47.279Z,29.97
2018-02-09T15:33:21.119Z,29.93
2018-02-09T15:35:55.773Z,28.23
2018-02-09T15:38:29.684Z,29.50
2018-02-09T15:41:03.235Z,28.80
2018-02-09T15:43:37.590Z,29.63
2018-02-09T15:46:11.432Z,30.17
2018-02-09T15:48:45.350Z,30.07
2018-02-09T15:51:19.047Z,29.53
2018-02-09T15:53:53.439Z,30.73
2018-02-09T15:56:27.829Z,30.87
2018-02-09T15:59:16.209Z,31.03
2018-02-09T16:01:50.682Z,31.13
2018-02-09T16:04:29.087Z,32.60
2018-02-09T16:07:02.837Z,33.00
2018-02-09T16:09:37.469Z,33.07
2018-02-09T16:12:11.394Z,33.53
2018-02-09T16:14:46.014Z,30.63
2018-02-09T16:17:19.824Z,31.23
2018-02-09T16:19:53.484Z,30.33
2018-02-09T16:22:28.141Z,35.63
2018-02-09T16:25:02.569Z,36.50
2018-02-09T16:27:37.402Z,36.37
2018-02-09T16:30:11.031Z,36.37
2018-02-09T16:32:44.792Z,37.50
2018-02-09T16:35:18.491Z,37.60
2018-02-09T16:37:52.314Z,33.50
2018-02-09T16:40:26.566Z,32.47
2018-02-09T16:43:00.890Z,31.87
2018-02-09T16:45:34.547Z,32.60
2018-02-09T16:48:09.445Z,32.27
2018-02-09T16:50:44.106Z,30.83
2018-02-09T16:53:18.486Z,32.63
2018-02-09T16:55:52.171Z,31.63
2018-02-09T16:58:25.986Z,30.83
2018-02-09T17:00:59.817Z,32.10
2018-02-09T17:03:34.558Z,32.10
2018-02-09T17:06:08.784Z,30.77
2018-02-09T17:08:43.727Z,31.97
2018-02-09T17:11:17.688Z,34.30
2018-02-09T17:13:51.244Z,34.10
2018-02-09T17:16:24.798Z,31.83
2018-02-09T17:18:58.451Z,34.53
2018-02-09T17:21:33.099Z,38.37
2018-02-09T17:24:07.072Z,35.30
2018-02-09T17:26:41.551Z,41.77
2018-02-09T17:29:15.436Z,48.70
2018-02-09T17:31:49.839Z,36.13
2018-02-09T17:34:23.787Z,37.90
2018-02-09T17:36:57.751Z,35.43
2018-02-09T17:39:31.601Z,34.53
2018-02-09T17:42:06.240Z,32.50
2018-02-09T17:44:40.823Z,33.27
2018-02-09T17:47:15.246Z,32.40
2018-02-09T17:49:51.240Z,33.00
2018-02-09T17:52:25.004Z,36.17
2018-02-09T17:54:58.624Z,35.10
2018-02-09T17:57:33.132Z,36.37
2018-02-09T18:00:07.729Z,34.87
2018-02-09T18:02:41.704Z,34.13
2018-02-09T18:05:15.669Z,35.27
2018-02-09T18:07:49.681Z,33.60
2018-02-09T18:10:23.620Z,34.87
2018-02-09T18:12:57.398Z,34.73
2018-02-09T18:15:30.981Z,34.63
2018-02-09T18:18:04.602Z,32.20
2018-02-09T18:20:39.000Z,33.47
2018-02-09T18:23:12.730Z,32.20
2018-02-09T18:25:47.355Z,32.87
2018-02-09T18:28:21.963Z,33.17
2018-02-09T18:30:56.091Z,33.17
2018-02-09T18:33:31.015Z,32.33
2018-02-09T18:36:09.469Z,37.13
2018-02-09T18:38:44.175Z,34.73
2018-02-09T18:41:18.653Z,32.00
2018-02-09T18:43:58.815Z,34.03
2018-02-09T18:46:34.751Z,34.93
2018-02-09T18:49:09.440Z,33.73
2018-02-09T18:51:43.843Z,34.50
2018-02-09T18:54:17.487Z,32.23
2018-02-09T18:56:51.206Z,34.37
2018-02-09T18:59:25.668Z,33.70
2018-02-09T19:01:59.282Z,31.43
2018-02-09T19:04:33.681Z,38.72
2018-02-09T19:07:07.486Z,31.27
2018-02-09T19:09:42.061Z,30.43
2018-02-09T19:12:15.987Z,31.50
2018-02-09T19:14:50.612Z,31.93
2018-02-09T19:17:24.319Z,33.30
2018-02-09T19:19:59.130Z,33.53
2018-02-09T19:22:33.258Z,33.17
2018-02-09T19:25:06.875Z,34.43
2018-02-09T19:27:40.523Z,33.67
2018-02-09T19:30:14.644Z,33.60
2018-02-09T19:32:48.330Z,32.33
2018-02-09T19:35:22.383Z,31.67
2018-02-09T19:37:56.206Z,31.47
2018-02-09T19:40:30.743Z,32.20
2018-02-09T19:43:04.830Z,31.73
2018-02-09T19:45:38.560Z,33.13
2018-02-09T19:48:12.348Z,33.03
2018-02-09T19:50:46.228Z,31.77
2018-02-09T19:53:20.488Z,31.73
2018-02-09T19:55:53.996Z,33.97
2018-02-09T19:58:27.846Z,35.13
2018-02-09T20:01:02.212Z,35.90
2018-02-09T20:03:36.088Z,33.87
2018-02-09T20:06:10.638Z,34.27
2018-02-09T20:08:44.685Z,34.33
2018-02-09T20:11:18.536Z,33.73
2018-02-09T20:13:52.211Z,35.23
2018-02-09T20:16:26.887Z,35.90
2018-02-09T20:19:00.536Z,35.67
2018-02-09T20:21:34.352Z,35.93
2018-02-09T20:24:08.834Z,36.20
2018-02-09T20:26:43.324Z,35.27
2018-02-09T20:29:17.387Z,34.60
2018-02-09T20:31:51.023Z,36.07
2018-02-09T20:34:24.927Z,35.53
2018-02-09T20:36:58.954Z,35.47
2018-02-09T20:39:32.764Z,32.67
2018-02-09T20:42:07.585Z,33.97
2018-02-09T20:44:41.494Z,34.30
2018-02-09T20:47:15.555Z,32.50
2018-02-09T20:49:49.188Z,34.90
2018-02-09T20:52:23.176Z,33.07
2018-02-09T20:54:57.841Z,33.57
2018-02-09T20:57:32.669Z,33.53
2018-02-09T21:00:06.842Z,33.40
2018-02-09T21:02:41.358Z,36.30
2018-02-09T21:05:15.121Z,33.63
2018-02-09T21:07:50.301Z,36.07
2018-02-09T21:10:25.270Z,34.73
2018-02-09T21:13:00.211Z,35.57
2018-02-09T21:15:33.997Z,35.90
2018-02-09T21:18:08.118Z,34.93
2018-02-09T21:20:41.989Z,35.33
2018-02-09T21:23:15.821Z,36.73
2018-02-09T21:25:50.118Z,36.20
2018-02-09T21:28:25.207Z,37.70
2018-02-09T21:30:59.790Z,37.97
2018-02-09T21:33:33.578Z,35.83
2018-02-09T21:36:07.389Z,34.83
2018-02-09T21:38:40.964Z,35.30
2018-02-09T21:41:16.425Z,36.77
2018-02-09T21:43:51.087Z,36.50
2018-02-09T21:46:24.985Z,34.63
2018-02-09T21:48:58.882Z,37.27
2018-02-09T21:51:32.675Z,37.33
2018-02-09T21:54:06.803Z,36.67
2018-02-09T21:56:40.951Z,36.37
2018-02-09T21:59:15.045Z,36.30
2018-02-09T22:01:49.448Z,36.53
2018-02-09T22:04:25.744Z,37.10
2018-02-09T22:07:00.627Z,36.47
2018-02-09T22:09:35.326Z,36.63
2018-02-09T22:12:08.947Z,34.03
2018-02-09T22:14:43.646Z,34.83
2018-02-09T22:17:17.277Z,36.90
2018-02-09T22:19:51.172Z,36.03
2018-02-09T22:22:25.041Z,35.30
2018-02-09T22:24:58.996Z,34.07
2018-02-09T22:27:32.664Z,35.00
2018-02-09T22:30:06.422Z,36.87
2018-02-09T22:32:41.100Z,34.53
2018-02-09T22:35:15.108Z,34.90
2018-02-09T22:37:49.014Z,33.60
2018-02-09T22:40:22.718Z,34.17
2018-02-09T22:42:56.551Z,32.77
2018-02-09T22:45:31.178Z,32.57
2018-02-09T22:48:05.921Z,35.70
2018-02-09T22:50:39.640Z,33.27
2018-02-09T22:53:14.152Z,34.93
2018-02-09T22:55:47.831Z,33.00
2018-02-09T22:58:22.465Z,33.40
2018-02-09T23:00:57.011Z,33.20
2018-02-09T23:03:31.367Z,34.70
2018-02-09T23:06:05.162Z,34.53
2018-02-09T23:08:38.963Z,35.40
2018-02-09T23:11:13.656Z,36.70
2018-02-09T23:13:47.560Z,36.87
2018-02-09T23:16:21.243Z,42.92
2018-02-09T23:18:55.156Z,37.23
2018-02-09T23:21:29.638Z,35.80
2018-02-09T23:24:03.565Z,35.07
2018-02-09T23:26:37.347Z,34.83
2018-02-09T23:29:11.084Z,35.03
2018-02-09T23:31:45.499Z,36.37
2018-02-09T23:34:19.835Z,37.23
2018-02-09T23:36:53.896Z,34.63
2018-02-09T23:39:27.693Z,34.47
2018-02-09T23:42:01.423Z,32.87
2018-02-09T23:44:35.005Z,35.07
2018-02-09T23:47:09.608Z,37.00
2018-02-09T23:49:43.538Z,36.50
2018-02-09T23:52:18.084Z,35.03
2018-02-09T23:54:51.881Z,35.60
2018-02-09T23:57:26.592Z,34.60
